sensor_id;sensor_type;location;lat;lon;timestamp;P1;durP1;ratioP1;P2;durP2;ratioP2
40907;SDS011;51055;59.436;24.778;2023-04-25T00:01:02;2.97;;;1.63;;
40907;SDS011;51055;59.436;24.778;2023-04-25T00:03:31;4.18;;;2.35;;
40907;SDS011;51055;59.436;24.778;2023-04-25T00:05:59;4.07;;;2.30;;
40907;SDS011;51055;59.436;24.778;2023-04-25T00:08:29;3.72;;;2.10;;
40907;SDS011;51055;59.436;24.778;2023-04-25T00:10:57;3.77;;;2.40;;
40907;SDS011;51055;59.436;24.778;2023-04-25T00:13:26;4.30;;;2.80;;
40907;SDS011;51055;59.436;24.778;2023-04-25T00:15:54;5.07;;;2.70;;
40907;SDS011;51055;59.436;24.778;2023-04-25T00:18:22;4.60;;;2.45;;
40907;SDS011;51055;59.436;24.778;2023-04-25T00:20:50;4.00;;;2.47;;
40907;SDS011;51055;59.436;24.778;2023-04-25T00:23:18;3.75;;;1.85;;
40907;SDS011;51055;59.436;24.778;2023-04-25T00:25:46;4.50;;;2.70;;
40907;SDS011;51055;59.436;24.778;2023-04-25T00:28:15;4.95;;;2.58;;
40907;SDS011;51055;59.436;24.778;2023-04-25T00:30:44;4.60;;;2.70;;
40907;SDS011;51055;59.436;24.778;2023-04-25T00:33:11;6.03;;;2.78;;
40907;SDS011;51055;59.436;24.778;2023-04-25T00:35:39;4.60;;;2.88;;
40907;SDS011;51055;59.436;24.778;2023-04-25T00:38:07;4.53;;;2.65;;
40907;SDS011;51055;59.436;24.778;2023-04-25T00:40:35;4.00;;;2.70;;
40907;SDS011;51055;59.436;24.778;2023-04-25T00:43:02;4.63;;;2.60;;
40907;SDS011;51055;59.436;24.778;2023-04-25T00:45:33;5.28;;;2.70;;
40907;SDS011;51055;59.436;24.778;2023-04-25T00:48:05;4.13;;;2.35;;
40907;SDS011;51055;59.436;24.778;2023-04-25T00:50:33;4.57;;;2.45;;
40907;SDS011;51055;59.436;24.778;2023-04-25T00:53:02;4.50;;;2.70;;
40907;SDS011;51055;59.436;24.778;2023-04-25T00:55:30;4.57;;;2.72;;
40907;SDS011;51055;59.436;24.778;2023-04-25T00:57:59;5.45;;;2.58;;
40907;SDS011;51055;59.436;24.778;2023-04-25T01:00:27;6.20;;;2.58;;
40907;SDS011;51055;59.436;24.778;2023-04-25T01:02:56;4.50;;;2.55;;
40907;SDS011;51055;59.436;24.778;2023-04-25T01:05:24;3.00;;;1.97;;
40907;SDS011;51055;59.436;24.778;2023-04-25T01:07:52;4.75;;;2.40;;
40907;SDS011;51055;59.436;24.778;2023-04-25T01:10:20;4.53;;;2.40;;
40907;SDS011;51055;59.436;24.778;2023-04-25T01:12:48;4.05;;;2.50;;
40907;SDS011;51055;59.436;24.778;2023-04-25T01:15:15;4.15;;;2.10;;
40907;SDS011;51055;59.436;24.778;2023-04-25T01:17:43;10.35;;;2.60;;
40907;SDS011;51055;59.436;24.778;2023-04-25T01:20:11;4.15;;;2.20;;
40907;SDS011;51055;59.436;24.778;2023-04-25T01:22:41;4.57;;;2.67;;
40907;SDS011;51055;59.436;24.778;2023-04-25T01:27:38;3.83;;;2.28;;
40907;SDS011;51055;59.436;24.778;2023-04-25T01:30:09;4.05;;;2.30;;
40907;SDS011;51055;59.436;24.778;2023-04-25T01:32:37;2.97;;;1.85;;
40907;SDS011;51055;59.436;24.778;2023-04-25T01:35:06;4.82;;;2.58;;
40907;SDS011;51055;59.436;24.778;2023-04-25T01:37:39;5.30;;;2.28;;
40907;SDS011;51055;59.436;24.778;2023-04-25T01:40:08;6.38;;;2.80;;
40907;SDS011;51055;59.436;24.778;2023-04-25T01:42:40;4.97;;;2.25;;
40907;SDS011;51055;59.436;24.778;2023-04-25T01:45:10;4.03;;;2.35;;
40907;SDS011;51055;59.436;24.778;2023-04-25T01:47:39;4.28;;;2.13;;
40907;SDS011;51055;59.436;24.778;2023-04-25T01:50:07;7.78;;;3.15;;
40907;SDS011;51055;59.436;24.778;2023-04-25T01:52:35;4.30;;;2.80;;
40907;SDS011;51055;59.436;24.778;2023-04-25T01:55:03;5.28;;;2.80;;
40907;SDS011;51055;59.436;24.778;2023-04-25T01:57:32;4.70;;;2.53;;
40907;SDS011;51055;59.436;24.778;2023-04-25T02:00:01;4.88;;;2.60;;
40907;SDS011;51055;59.436;24.778;2023-04-25T02:02:32;6.03;;;3.05;;
40907;SDS011;51055;59.436;24.778;2023-04-25T02:05:00;6.93;;;2.95;;
40907;SDS011;51055;59.436;24.778;2023-04-25T02:07:28;5.18;;;2.97;;
40907;SDS011;51055;59.436;24.778;2023-04-25T02:09:56;5.60;;;2.88;;
40907;SDS011;51055;59.436;24.778;2023-04-25T02:12:23;5.70;;;3.30;;
40907;SDS011;51055;59.436;24.778;2023-04-25T02:14:53;6.05;;;3.05;;
40907;SDS011;51055;59.436;24.778;2023-04-25T02:17:21;4.93;;;3.20;;
40907;SDS011;51055;59.436;24.778;2023-04-25T02:19:49;5.90;;;3.75;;
40907;SDS011;51055;59.436;24.778;2023-04-25T02:22:17;5.70;;;3.67;;
40907;SDS011;51055;59.436;24.778;2023-04-25T02:24:45;6.70;;;3.50;;
40907;SDS011;51055;59.436;24.778;2023-04-25T02:27:13;5.13;;;2.95;;
40907;SDS011;51055;59.436;24.778;2023-04-25T02:29:41;6.45;;;3.75;;
40907;SDS011;51055;59.436;24.778;2023-04-25T02:32:09;6.43;;;3.75;;
40907;SDS011;51055;59.436;24.778;2023-04-25T02:34:37;6.22;;;3.83;;
40907;SDS011;51055;59.436;24.778;2023-04-25T02:37:04;5.85;;;3.72;;
40907;SDS011;51055;59.436;24.778;2023-04-25T02:39:32;5.60;;;3.60;;
40907;SDS011;51055;59.436;24.778;2023-04-25T02:42:00;5.15;;;3.40;;
40907;SDS011;51055;59.436;24.778;2023-04-25T02:44:28;5.17;;;3.10;;
40907;SDS011;51055;59.436;24.778;2023-04-25T02:46:55;6.88;;;4.10;;
40907;SDS011;51055;59.436;24.778;2023-04-25T02:49:23;7.60;;;4.22;;
40907;SDS011;51055;59.436;24.778;2023-04-25T02:51:51;6.93;;;4.28;;
40907;SDS011;51055;59.436;24.778;2023-04-25T02:54:19;6.57;;;4.50;;
40907;SDS011;51055;59.436;24.778;2023-04-25T02:56:46;6.50;;;4.10;;
40907;SDS011;51055;59.436;24.778;2023-04-25T02:59:14;6.70;;;4.45;;
40907;SDS011;51055;59.436;24.778;2023-04-25T03:01:42;5.03;;;3.55;;
40907;SDS011;51055;59.436;24.778;2023-04-25T03:04:10;7.28;;;4.38;;
40907;SDS011;51055;59.436;24.778;2023-04-25T03:06:37;6.82;;;4.28;;
40907;SDS011;51055;59.436;24.778;2023-04-25T03:09:05;6.80;;;4.25;;
40907;SDS011;51055;59.436;24.778;2023-04-25T03:11:34;7.15;;;4.70;;
40907;SDS011;51055;59.436;24.778;2023-04-25T03:14:01;6.40;;;4.47;;
40907;SDS011;51055;59.436;24.778;2023-04-25T03:16:29;6.95;;;4.70;;
40907;SDS011;51055;59.436;24.778;2023-04-25T03:18:58;7.45;;;4.68;;
40907;SDS011;51055;59.436;24.778;2023-04-25T03:21:25;8.98;;;5.00;;
40907;SDS011;51055;59.436;24.778;2023-04-25T03:23:53;7.88;;;4.55;;
40907;SDS011;51055;59.436;24.778;2023-04-25T03:26:21;6.57;;;4.65;;
40907;SDS011;51055;59.436;24.778;2023-04-25T03:28:48;7.20;;;4.72;;
40907;SDS011;51055;59.436;24.778;2023-04-25T03:31:16;7.40;;;5.07;;
40907;SDS011;51055;59.436;24.778;2023-04-25T03:33:43;6.85;;;5.03;;
40907;SDS011;51055;59.436;24.778;2023-04-25T03:36:11;7.50;;;5.20;;
40907;SDS011;51055;59.436;24.778;2023-04-25T03:38:39;8.70;;;5.63;;
40907;SDS011;51055;59.436;24.778;2023-04-25T03:41:08;8.82;;;5.55;;
40907;SDS011;51055;59.436;24.778;2023-04-25T03:43:36;10.25;;;6.00;;
40907;SDS011;51055;59.436;24.778;2023-04-25T03:46:04;8.77;;;6.00;;
40907;SDS011;51055;59.436;24.778;2023-04-25T03:48:31;9.00;;;5.47;;
40907;SDS011;51055;59.436;24.778;2023-04-25T03:50:59;9.07;;;5.63;;
40907;SDS011;51055;59.436;24.778;2023-04-25T03:53:27;8.35;;;5.80;;
40907;SDS011;51055;59.436;24.778;2023-04-25T03:55:54;9.90;;;5.68;;
40907;SDS011;51055;59.436;24.778;2023-04-25T03:58:22;8.88;;;5.85;;
40907;SDS011;51055;59.436;24.778;2023-04-25T04:03:18;8.32;;;6.30;;
40907;SDS011;51055;59.436;24.778;2023-04-25T04:05:47;10.77;;;6.57;;
40907;SDS011;51055;59.436;24.778;2023-04-25T04:08:16;6.87;;;4.77;;
40907;SDS011;51055;59.436;24.778;2023-04-25T04:10:43;8.35;;;6.32;;
40907;SDS011;51055;59.436;24.778;2023-04-25T04:13:11;13.48;;;7.43;;
40907;SDS011;51055;59.436;24.778;2023-04-25T04:15:38;12.30;;;7.50;;
40907;SDS011;51055;59.436;24.778;2023-04-25T04:18:06;10.88;;;6.88;;
40907;SDS011;51055;59.436;24.778;2023-04-25T04:20:34;14.73;;;7.32;;
40907;SDS011;51055;59.436;24.778;2023-04-25T04:23:02;10.48;;;7.18;;
40907;SDS011;51055;59.436;24.778;2023-04-25T04:25:30;10.52;;;7.28;;
40907;SDS011;51055;59.436;24.778;2023-04-25T04:27:58;9.57;;;5.83;;
40907;SDS011;51055;59.436;24.778;2023-04-25T04:30:26;11.35;;;7.10;;
40907;SDS011;51055;59.436;24.778;2023-04-25T04:32:57;13.23;;;7.60;;
40907;SDS011;51055;59.436;24.778;2023-04-25T04:35:25;10.85;;;7.28;;
40907;SDS011;51055;59.436;24.778;2023-04-25T04:37:53;11.38;;;7.40;;
40907;SDS011;51055;59.436;24.778;2023-04-25T04:42:49;11.75;;;7.50;;
40907;SDS011;51055;59.436;24.778;2023-04-25T04:45:16;10.55;;;7.68;;
40907;SDS011;51055;59.436;24.778;2023-04-25T04:47:44;11.18;;;8.38;;
40907;SDS011;51055;59.436;24.778;2023-04-25T04:50:13;10.13;;;8.20;;
40907;SDS011;51055;59.436;24.778;2023-04-25T04:52:42;12.60;;;8.13;;
40907;SDS011;51055;59.436;24.778;2023-04-25T04:55:10;10.63;;;7.90;;
40907;SDS011;51055;59.436;24.778;2023-04-25T04:57:38;10.38;;;8.20;;
40907;SDS011;51055;59.436;24.778;2023-04-25T05:00:07;12.27;;;8.10;;
40907;SDS011;51055;59.436;24.778;2023-04-25T05:02:38;14.20;;;8.43;;
40907;SDS011;51055;59.436;24.778;2023-04-25T05:05:06;11.82;;;8.73;;
40907;SDS011;51055;59.436;24.778;2023-04-25T05:07:35;10.20;;;7.60;;
40907;SDS011;51055;59.436;24.778;2023-04-25T05:10:03;12.67;;;8.83;;
40907;SDS011;51055;59.436;24.778;2023-04-25T05:12:31;11.67;;;8.33;;
40907;SDS011;51055;59.436;24.778;2023-04-25T05:15:00;10.75;;;8.15;;
40907;SDS011;51055;59.436;24.778;2023-04-25T05:17:28;13.63;;;8.43;;
40907;SDS011;51055;59.436;24.778;2023-04-25T05:19:56;12.63;;;8.17;;
40907;SDS011;51055;59.436;24.778;2023-04-25T05:22:24;12.73;;;8.48;;
40907;SDS011;51055;59.436;24.778;2023-04-25T05:24:52;16.05;;;8.23;;
40907;SDS011;51055;59.436;24.778;2023-04-25T05:27:22;12.00;;;8.70;;
40907;SDS011;51055;59.436;24.778;2023-04-25T05:29:51;12.07;;;8.07;;
40907;SDS011;51055;59.436;24.778;2023-04-25T05:32:21;14.15;;;8.25;;
40907;SDS011;51055;59.436;24.778;2023-04-25T05:34:48;14.65;;;7.82;;
40907;SDS011;51055;59.436;24.778;2023-04-25T05:37:16;13.43;;;8.30;;
40907;SDS011;51055;59.436;24.778;2023-04-25T05:39:44;10.07;;;7.97;;
40907;SDS011;51055;59.436;24.778;2023-04-25T05:42:12;13.32;;;7.53;;
40907;SDS011;51055;59.436;24.778;2023-04-25T05:44:39;11.32;;;8.23;;
40907;SDS011;51055;59.436;24.778;2023-04-25T05:47:07;13.38;;;7.88;;
40907;SDS011;51055;59.436;24.778;2023-04-25T05:49:34;11.35;;;7.60;;
40907;SDS011;51055;59.436;24.778;2023-04-25T05:52:02;12.05;;;7.40;;
40907;SDS011;51055;59.436;24.778;2023-04-25T05:54:30;10.32;;;7.43;;
40907;SDS011;51055;59.436;24.778;2023-04-25T05:56:58;11.32;;;7.28;;
40907;SDS011;51055;59.436;24.778;2023-04-25T05:59:25;11.88;;;7.05;;
40907;SDS011;51055;59.436;24.778;2023-04-25T06:01:53;9.20;;;7.13;;
40907;SDS011;51055;59.436;24.778;2023-04-25T06:04:20;11.00;;;7.15;;
40907;SDS011;51055;59.436;24.778;2023-04-25T06:06:48;12.05;;;6.40;;
40907;SDS011;51055;59.436;24.778;2023-04-25T06:09:16;9.95;;;6.63;;
40907;SDS011;51055;59.436;24.778;2023-04-25T06:11:44;11.82;;;7.40;;
40907;SDS011;51055;59.436;24.778;2023-04-25T06:14:12;8.97;;;6.10;;
40907;SDS011;51055;59.436;24.778;2023-04-25T06:16:39;10.80;;;6.80;;
40907;SDS011;51055;59.436;24.778;2023-04-25T06:19:07;9.23;;;6.63;;
40907;SDS011;51055;59.436;24.778;2023-04-25T06:21:36;10.85;;;6.18;;
40907;SDS011;51055;59.436;24.778;2023-04-25T06:24:04;12.60;;;6.47;;
40907;SDS011;51055;59.436;24.778;2023-04-25T06:26:32;16.92;;;6.40;;
40907;SDS011;51055;59.436;24.778;2023-04-25T06:29:00;13.23;;;5.72;;
40907;SDS011;51055;59.436;24.778;2023-04-25T06:31:27;14.80;;;6.28;;
40907;SDS011;51055;59.436;24.778;2023-04-25T06:33:56;12.20;;;5.32;;
40907;SDS011;51055;59.436;24.778;2023-04-25T06:36:24;11.65;;;4.90;;
40907;SDS011;51055;59.436;24.778;2023-04-25T06:38:55;12.48;;;5.35;;
40907;SDS011;51055;59.436;24.778;2023-04-25T06:41:22;11.05;;;5.20;;
40907;SDS011;51055;59.436;24.778;2023-04-25T06:43:50;9.23;;;5.23;;
40907;SDS011;51055;59.436;24.778;2023-04-25T06:46:18;13.23;;;5.45;;
40907;SDS011;51055;59.436;24.778;2023-04-25T06:48:46;13.53;;;4.60;;
40907;SDS011;51055;59.436;24.778;2023-04-25T06:51:14;11.98;;;4.43;;
40907;SDS011;51055;59.436;24.778;2023-04-25T06:53:42;10.55;;;4.97;;
40907;SDS011;51055;59.436;24.778;2023-04-25T06:56:10;11.30;;;5.10;;
40907;SDS011;51055;59.436;24.778;2023-04-25T06:58:38;15.25;;;4.30;;
40907;SDS011;51055;59.436;24.778;2023-04-25T07:01:06;10.63;;;4.60;;
40907;SDS011;51055;59.436;24.778;2023-04-25T07:03:34;13.55;;;4.63;;
40907;SDS011;51055;59.436;24.778;2023-04-25T07:06:02;11.00;;;4.32;;
40907;SDS011;51055;59.436;24.778;2023-04-25T07:08:30;9.63;;;4.60;;
40907;SDS011;51055;59.436;24.778;2023-04-25T07:10:58;8.87;;;3.97;;
40907;SDS011;51055;59.436;24.778;2023-04-25T07:13:26;11.35;;;4.38;;
40907;SDS011;51055;59.436;24.778;2023-04-25T07:15:54;10.82;;;4.53;;
40907;SDS011;51055;59.436;24.778;2023-04-25T07:18:23;10.18;;;4.53;;
40907;SDS011;51055;59.436;24.778;2023-04-25T07:20:51;10.55;;;4.43;;
40907;SDS011;51055;59.436;24.778;2023-04-25T07:23:19;10.20;;;3.90;;
40907;SDS011;51055;59.436;24.778;2023-04-25T07:25:47;8.75;;;4.15;;
40907;SDS011;51055;59.436;24.778;2023-04-25T07:28:15;18.08;;;3.83;;
40907;SDS011;51055;59.436;24.778;2023-04-25T07:30:45;9.50;;;3.97;;
40907;SDS011;51055;59.436;24.778;2023-04-25T07:33:13;8.82;;;3.70;;
40907;SDS011;51055;59.436;24.778;2023-04-25T07:35:42;11.80;;;4.20;;
40907;SDS011;51055;59.436;24.778;2023-04-25T07:38:10;8.23;;;4.20;;
40907;SDS011;51055;59.436;24.778;2023-04-25T07:40:37;12.15;;;4.20;;
40907;SDS011;51055;59.436;24.778;2023-04-25T07:43:05;10.90;;;4.85;;
40907;SDS011;51055;59.436;24.778;2023-04-25T07:45:33;15.07;;;6.47;;
40907;SDS011;51055;59.436;24.778;2023-04-25T07:48:01;10.52;;;5.88;;
40907;SDS011;51055;59.436;24.778;2023-04-25T07:50:30;10.88;;;5.03;;
40907;SDS011;51055;59.436;24.778;2023-04-25T07:52:58;13.68;;;4.93;;
40907;SDS011;51055;59.436;24.778;2023-04-25T07:55:27;11.83;;;5.60;;
40907;SDS011;51055;59.436;24.778;2023-04-25T07:57:55;11.55;;;5.00;;
40907;SDS011;51055;59.436;24.778;2023-04-25T08:00:23;11.15;;;5.60;;
40907;SDS011;51055;59.436;24.778;2023-04-25T08:02:51;8.70;;;5.07;;
40907;SDS011;51055;59.436;24.778;2023-04-25T08:05:19;6.03;;;3.53;;
40907;SDS011;51055;59.436;24.778;2023-04-25T08:07:49;12.35;;;3.78;;
40907;SDS011;51055;59.436;24.778;2023-04-25T08:10:17;7.68;;;3.80;;
40907;SDS011;51055;59.436;24.778;2023-04-25T08:12:45;10.05;;;4.07;;
40907;SDS011;51055;59.436;24.778;2023-04-25T08:15:13;10.45;;;3.70;;
40907;SDS011;51055;59.436;24.778;2023-04-25T08:17:41;10.10;;;3.77;;
40907;SDS011;51055;59.436;24.778;2023-04-25T08:20:09;11.38;;;4.10;;
40907;SDS011;51055;59.436;24.778;2023-04-25T08:22:38;16.13;;;4.10;;
40907;SDS011;51055;59.436;24.778;2023-04-25T08:25:06;9.68;;;3.65;;
40907;SDS011;51055;59.436;24.778;2023-04-25T08:27:34;8.68;;;3.70;;
40907;SDS011;51055;59.436;24.778;2023-04-25T08:30:02;7.30;;;3.42;;
40907;SDS011;51055;59.436;24.778;2023-04-25T08:32:33;11.02;;;3.70;;
40907;SDS011;51055;59.436;24.778;2023-04-25T08:35:01;16.63;;;3.20;;
40907;SDS011;51055;59.436;24.778;2023-04-25T08:37:29;7.28;;;3.10;;
40907;SDS011;51055;59.436;24.778;2023-04-25T08:39:57;9.23;;;3.00;;
40907;SDS011;51055;59.436;24.778;2023-04-25T08:42:26;8.77;;;3.30;;
40907;SDS011;51055;59.436;24.778;2023-04-25T08:44:55;5.93;;;3.10;;
40907;SDS011;51055;59.436;24.778;2023-04-25T08:47:23;9.57;;;3.53;;
40907;SDS011;51055;59.436;24.778;2023-04-25T08:49:53;6.93;;;3.10;;
40907;SDS011;51055;59.436;24.778;2023-04-25T08:54:51;7.25;;;2.80;;
40907;SDS011;51055;59.436;24.778;2023-04-25T08:57:21;9.85;;;3.28;;
40907;SDS011;51055;59.436;24.778;2023-04-25T08:59:51;8.45;;;3.22;;
40907;SDS011;51055;59.436;24.778;2023-04-25T09:02:20;10.07;;;3.30;;
40907;SDS011;51055;59.436;24.778;2023-04-25T09:04:48;11.02;;;3.25;;
40907;SDS011;51055;59.436;24.778;2023-04-25T09:07:17;8.98;;;3.08;;
40907;SDS011;51055;59.436;24.778;2023-04-25T09:09:48;6.90;;;2.83;;
40907;SDS011;51055;59.436;24.778;2023-04-25T09:12:19;6.55;;;3.15;;
40907;SDS011;51055;59.436;24.778;2023-04-25T09:17:31;8.45;;;3.17;;
40907;SDS011;51055;59.436;24.778;2023-04-25T09:20:06;7.65;;;3.03;;
40907;SDS011;51055;59.436;24.778;2023-04-25T09:27:59;7.55;;;2.67;;
40907;SDS011;51055;59.436;24.778;2023-04-25T09:30:31;6.60;;;2.85;;
40907;SDS011;51055;59.436;24.778;2023-04-25T09:33:07;6.18;;;3.00;;
40907;SDS011;51055;59.436;24.778;2023-04-25T09:35:40;7.15;;;3.00;;
40907;SDS011;51055;59.436;24.778;2023-04-25T09:38:13;7.90;;;3.30;;
40907;SDS011;51055;59.436;24.778;2023-04-25T09:40:43;6.65;;;2.80;;
40907;SDS011;51055;59.436;24.778;2023-04-25T09:43:19;7.70;;;2.83;;
40907;SDS011;51055;59.436;24.778;2023-04-25T09:45:48;9.23;;;2.90;;
40907;SDS011;51055;59.436;24.778;2023-04-25T09:48:19;8.93;;;3.00;;
40907;SDS011;51055;59.436;24.778;2023-04-25T09:53:46;10.55;;;2.85;;
40907;SDS011;51055;59.436;24.778;2023-04-25T09:56:18;4.93;;;2.72;;
40907;SDS011;51055;59.436;24.778;2023-04-25T09:58:48;6.47;;;2.80;;
40907;SDS011;51055;59.436;24.778;2023-04-25T10:01:21;8.25;;;3.10;;
40907;SDS011;51055;59.436;24.778;2023-04-25T10:03:50;4.80;;;2.80;;
40907;SDS011;51055;59.436;24.778;2023-04-25T10:06:20;6.55;;;2.85;;
40907;SDS011;51055;59.436;24.778;2023-04-25T10:08:52;7.28;;;2.80;;
40907;SDS011;51055;59.436;24.778;2023-04-25T10:11:22;5.72;;;3.03;;
40907;SDS011;51055;59.436;24.778;2023-04-25T10:13:53;6.70;;;3.10;;
40907;SDS011;51055;59.436;24.778;2023-04-25T10:16:22;7.25;;;3.05;;
40907;SDS011;51055;59.436;24.778;2023-04-25T10:18:50;7.00;;;3.47;;
40907;SDS011;51055;59.436;24.778;2023-04-25T10:23:48;9.70;;;3.20;;
40907;SDS011;51055;59.436;24.778;2023-04-25T10:26:17;7.28;;;3.10;;
40907;SDS011;51055;59.436;24.778;2023-04-25T10:28:54;7.82;;;2.88;;
40907;SDS011;51055;59.436;24.778;2023-04-25T10:31:25;7.82;;;2.90;;
40907;SDS011;51055;59.436;24.778;2023-04-25T10:33:53;9.18;;;3.13;;
40907;SDS011;51055;59.436;24.778;2023-04-25T10:36:21;7.77;;;2.83;;
40907;SDS011;51055;59.436;24.778;2023-04-25T10:38:51;5.47;;;2.88;;
40907;SDS011;51055;59.436;24.778;2023-04-25T10:41:20;8.98;;;2.95;;
40907;SDS011;51055;59.436;24.778;2023-04-25T10:43:50;7.20;;;2.70;;
40907;SDS011;51055;59.436;24.778;2023-04-25T10:46:29;6.82;;;2.30;;
40907;SDS011;51055;59.436;24.778;2023-04-25T10:49:00;7.45;;;2.60;;
40907;SDS011;51055;59.436;24.778;2023-04-25T10:51:29;7.30;;;2.60;;
40907;SDS011;51055;59.436;24.778;2023-04-25T10:54:19;7.85;;;2.90;;
40907;SDS011;51055;59.436;24.778;2023-04-25T10:56:52;10.38;;;2.80;;
40907;SDS011;51055;59.436;24.778;2023-04-25T10:59:20;5.55;;;2.45;;
40907;SDS011;51055;59.436;24.778;2023-04-25T11:01:52;5.28;;;2.53;;
40907;SDS011;51055;59.436;24.778;2023-04-25T11:04:28;6.90;;;2.72;;
40907;SDS011;51055;59.436;24.778;2023-04-25T11:07:02;8.23;;;2.72;;
40907;SDS011;51055;59.436;24.778;2023-04-25T11:09:50;10.23;;;2.50;;
40907;SDS011;51055;59.436;24.778;2023-04-25T11:12:18;7.22;;;2.30;;
40907;SDS011;51055;59.436;24.778;2023-04-25T11:14:46;11.23;;;2.70;;
40907;SDS011;51055;59.436;24.778;2023-04-25T11:17:14;10.05;;;2.50;;
40907;SDS011;51055;59.436;24.778;2023-04-25T11:19:42;7.63;;;2.43;;
40907;SDS011;51055;59.436;24.778;2023-04-25T11:22:10;7.43;;;2.37;;
40907;SDS011;51055;59.436;24.778;2023-04-25T11:24:39;4.68;;;2.10;;
40907;SDS011;51055;59.436;24.778;2023-04-25T11:27:07;6.17;;;2.30;;
40907;SDS011;51055;59.436;24.778;2023-04-25T11:32:04;8.90;;;2.50;;
40907;SDS011;51055;59.436;24.778;2023-04-25T11:37:01;9.93;;;2.77;;
40907;SDS011;51055;59.436;24.778;2023-04-25T11:39:29;8.40;;;2.22;;
40907;SDS011;51055;59.436;24.778;2023-04-25T11:41:57;10.93;;;2.67;;
40907;SDS011;51055;59.436;24.778;2023-04-25T11:44:28;6.97;;;2.58;;
40907;SDS011;51055;59.436;24.778;2023-04-25T11:46:57;6.22;;;2.00;;
40907;SDS011;51055;59.436;24.778;2023-04-25T11:49:25;8.45;;;2.38;;
40907;SDS011;51055;59.436;24.778;2023-04-25T11:51:58;45.03;;;4.93;;
40907;SDS011;51055;59.436;24.778;2023-04-25T11:54:26;12.35;;;2.63;;
40907;SDS011;51055;59.436;24.778;2023-04-25T11:56:54;13.98;;;2.63;;
40907;SDS011;51055;59.436;24.778;2023-04-25T11:59:25;8.68;;;2.38;;
40907;SDS011;51055;59.436;24.778;2023-04-25T12:01:53;6.38;;;2.20;;
40907;SDS011;51055;59.436;24.778;2023-04-25T12:04:22;6.43;;;1.93;;
40907;SDS011;51055;59.436;24.778;2023-04-25T12:06:52;5.72;;;2.35;;
40907;SDS011;51055;59.436;24.778;2023-04-25T12:09:28;7.70;;;2.22;;
40907;SDS011;51055;59.436;24.778;2023-04-25T12:11:58;9.88;;;2.00;;
40907;SDS011;51055;59.436;24.778;2023-04-25T12:14:27;7.10;;;2.05;;
40907;SDS011;51055;59.436;24.778;2023-04-25T12:16:57;7.03;;;2.80;;
40907;SDS011;51055;59.436;24.778;2023-04-25T12:19:26;7.40;;;2.30;;
40907;SDS011;51055;59.436;24.778;2023-04-25T12:22:02;6.03;;;2.13;;
40907;SDS011;51055;59.436;24.778;2023-04-25T12:24:45;4.80;;;2.10;;
40907;SDS011;51055;59.436;24.778;2023-04-25T12:27:14;5.73;;;2.13;;
40907;SDS011;51055;59.436;24.778;2023-04-25T12:29:50;6.60;;;2.13;;
40907;SDS011;51055;59.436;24.778;2023-04-25T12:32:23;4.97;;;2.17;;
40907;SDS011;51055;59.436;24.778;2023-04-25T12:34:51;5.82;;;1.95;;
40907;SDS011;51055;59.436;24.778;2023-04-25T12:37:19;7.73;;;2.00;;
40907;SDS011;51055;59.436;24.778;2023-04-25T12:39:47;10.27;;;2.60;;
40907;SDS011;51055;59.436;24.778;2023-04-25T12:42:15;6.40;;;2.20;;
40907;SDS011;51055;59.436;24.778;2023-04-25T12:44:42;5.22;;;2.10;;
40907;SDS011;51055;59.436;24.778;2023-04-25T12:47:10;7.60;;;2.60;;
40907;SDS011;51055;59.436;24.778;2023-04-25T12:49:38;5.15;;;2.20;;
40907;SDS011;51055;59.436;24.778;2023-04-25T12:52:06;8.25;;;2.63;;
40907;SDS011;51055;59.436;24.778;2023-04-25T12:54:34;7.10;;;2.27;;
40907;SDS011;51055;59.436;24.778;2023-04-25T12:57:02;5.95;;;2.22;;
40907;SDS011;51055;59.436;24.778;2023-04-25T12:59:30;4.20;;;2.03;;
40907;SDS011;51055;59.436;24.778;2023-04-25T13:01:58;6.07;;;2.50;;
40907;SDS011;51055;59.436;24.778;2023-04-25T13:04:26;6.25;;;2.15;;
40907;SDS011;51055;59.436;24.778;2023-04-25T13:06:55;4.72;;;2.00;;
40907;SDS011;51055;59.436;24.778;2023-04-25T13:09:23;5.57;;;2.13;;
40907;SDS011;51055;59.436;24.778;2023-04-25T13:11:51;7.03;;;2.05;;
40907;SDS011;51055;59.436;24.778;2023-04-25T13:14:23;5.30;;;1.90;;
40907;SDS011;51055;59.436;24.778;2023-04-25T13:16:51;7.60;;;3.30;;
40907;SDS011;51055;59.436;24.778;2023-04-25T13:19:19;5.20;;;2.00;;
40907;SDS011;51055;59.436;24.778;2023-04-25T13:21:47;4.43;;;1.95;;
40907;SDS011;51055;59.436;24.778;2023-04-25T13:24:15;5.75;;;2.30;;
40907;SDS011;51055;59.436;24.778;2023-04-25T13:26:44;6.75;;;2.22;;
40907;SDS011;51055;59.436;24.778;2023-04-25T13:29:11;6.50;;;2.00;;
40907;SDS011;51055;59.436;24.778;2023-04-25T13:31:39;7.30;;;2.10;;
40907;SDS011;51055;59.436;24.778;2023-04-25T13:34:07;5.87;;;2.27;;
40907;SDS011;51055;59.436;24.778;2023-04-25T13:36:35;5.87;;;2.00;;
40907;SDS011;51055;59.436;24.778;2023-04-25T13:39:03;4.43;;;1.90;;
40907;SDS011;51055;59.436;24.778;2023-04-25T13:41:34;5.65;;;2.10;;
40907;SDS011;51055;59.436;24.778;2023-04-25T13:44:04;5.20;;;2.35;;
40907;SDS011;51055;59.436;24.778;2023-04-25T13:46:32;4.50;;;1.88;;
40907;SDS011;51055;59.436;24.778;2023-04-25T13:49:13;9.68;;;2.25;;
40907;SDS011;51055;59.436;24.778;2023-04-25T13:51:41;4.90;;;2.15;;
40907;SDS011;51055;59.436;24.778;2023-04-25T13:54:09;3.97;;;1.98;;
40907;SDS011;51055;59.436;24.778;2023-04-25T13:56:37;3.72;;;1.92;;
40907;SDS011;51055;59.436;24.778;2023-04-25T13:59:06;11.60;;;2.17;;
40907;SDS011;51055;59.436;24.778;2023-04-25T14:01:34;7.95;;;2.42;;
40907;SDS011;51055;59.436;24.778;2023-04-25T14:04:03;6.90;;;2.33;;
40907;SDS011;51055;59.436;24.778;2023-04-25T14:06:31;4.40;;;2.20;;
40907;SDS011;51055;59.436;24.778;2023-04-25T14:09:00;5.70;;;2.40;;
40907;SDS011;51055;59.436;24.778;2023-04-25T14:11:28;6.28;;;2.35;;
40907;SDS011;51055;59.436;24.778;2023-04-25T14:13:56;6.78;;;2.25;;
40907;SDS011;51055;59.436;24.778;2023-04-25T14:16:24;7.45;;;2.40;;
40907;SDS011;51055;59.436;24.778;2023-04-25T14:18:52;8.65;;;4.15;;
40907;SDS011;51055;59.436;24.778;2023-04-25T14:21:21;4.43;;;2.15;;
40907;SDS011;51055;59.436;24.778;2023-04-25T14:23:49;5.90;;;2.20;;
40907;SDS011;51055;59.436;24.778;2023-04-25T14:26:18;4.78;;;2.08;;
40907;SDS011;51055;59.436;24.778;2023-04-25T14:28:46;3.92;;;2.00;;
40907;SDS011;51055;59.436;24.778;2023-04-25T14:31:14;5.22;;;2.00;;
40907;SDS011;51055;59.436;24.778;2023-04-25T14:33:42;5.20;;;1.80;;
40907;SDS011;51055;59.436;24.778;2023-04-25T14:36:10;5.82;;;1.85;;
40907;SDS011;51055;59.436;24.778;2023-04-25T14:38:38;6.17;;;2.20;;
40907;SDS011;51055;59.436;24.778;2023-04-25T14:41:06;4.97;;;2.30;;
40907;SDS011;51055;59.436;24.778;2023-04-25T14:43:34;4.23;;;1.97;;
40907;SDS011;51055;59.436;24.778;2023-04-25T14:46:03;6.35;;;2.10;;
40907;SDS011;51055;59.436;24.778;2023-04-25T14:48:31;8.10;;;2.87;;
40907;SDS011;51055;59.436;24.778;2023-04-25T14:50:59;14.30;;;2.87;;
40907;SDS011;51055;59.436;24.778;2023-04-25T14:53:27;8.40;;;2.40;;
40907;SDS011;51055;59.436;24.778;2023-04-25T14:55:56;6.28;;;2.53;;
40907;SDS011;51055;59.436;24.778;2023-04-25T14:58:23;4.10;;;1.90;;
40907;SDS011;51055;59.436;24.778;2023-04-25T15:00:51;4.93;;;2.08;;
40907;SDS011;51055;59.436;24.778;2023-04-25T15:03:19;6.07;;;2.50;;
40907;SDS011;51055;59.436;24.778;2023-04-25T15:05:47;5.85;;;2.40;;
40907;SDS011;51055;59.436;24.778;2023-04-25T15:08:15;8.27;;;2.13;;